sensor_id;sensor_type;location;lat;lon;timestamp;P1;durP1;ratioP1;P2;durP2;ratioP2
57893;SDS011;43710;47.460;19.034;2023-04-06T06:08:38;19.02;;;13.00;;
57893;SDS011;43710;47.460;19.034;2023-04-06T06:11:42;22.17;;;14.73;;
57893;SDS011;43710;47.460;19.034;2023-04-06T06:14:46;22.67;;;13.25;;
57893;SDS011;43710;47.460;19.034;2023-04-06T06:17:50;19.83;;;12.95;;
57893;SDS011;43710;47.460;19.034;2023-04-06T06:20:52;20.00;;;12.90;;
57893;SDS011;43710;47.460;19.034;2023-04-06T06:23:56;21.65;;;12.93;;
57893;SDS011;43710;47.460;19.034;2023-04-06T06:26:59;19.80;;;12.88;;
57893;SDS011;43710;47.460;19.034;2023-04-06T06:30:02;19.52;;;12.57;;
57893;SDS011;43710;47.460;19.034;2023-04-06T06:33:05;17.62;;;12.82;;
57893;SDS011;43710;47.460;19.034;2023-04-06T06:36:08;19.02;;;12.70;;
57893;SDS011;43710;47.460;19.034;2023-04-06T06:39:11;16.27;;;10.60;;
57893;SDS011;43710;47.460;19.034;2023-04-06T06:42:14;18.55;;;11.77;;
57893;SDS011;43710;47.460;19.034;2023-04-06T06:45:17;20.95;;;12.88;;
57893;SDS011;43710;47.460;19.034;2023-04-06T06:48:20;15.93;;;12.27;;
57893;SDS011;43710;47.460;19.034;2023-04-06T06:51:22;17.15;;;10.95;;
57893;SDS011;43710;47.460;19.034;2023-04-06T06:54:24;16.87;;;11.18;;
57893;SDS011;43710;47.460;19.034;2023-04-06T06:57:27;16.33;;;10.35;;
57893;SDS011;43710;47.460;19.034;2023-04-06T07:00:30;14.35;;;9.23;;
57893;SDS011;43710;47.460;19.034;2023-04-06T07:03:32;12.07;;;8.55;;
57893;SDS011;43710;47.460;19.034;2023-04-06T07:06:35;13.18;;;8.75;;
57893;SDS011;43710;47.460;19.034;2023-04-06T07:09:38;13.27;;;9.10;;
57893;SDS011;43710;47.460;19.034;2023-04-06T07:12:40;13.02;;;8.60;;
57893;SDS011;43710;47.460;19.034;2023-04-06T07:15:43;13.93;;;8.68;;
57893;SDS011;43710;47.460;19.034;2023-04-06T07:18:46;15.30;;;9.07;;
57893;SDS011;43710;47.460;19.034;2023-04-06T07:21:49;14.85;;;9.23;;
57893;SDS011;43710;47.460;19.034;2023-04-06T07:24:51;17.73;;;9.57;;
57893;SDS011;43710;47.460;19.034;2023-04-06T07:27:53;16.70;;;9.82;;
57893;SDS011;43710;47.460;19.034;2023-04-06T07:30:56;13.15;;;8.63;;
57893;SDS011;43710;47.460;19.034;2023-04-06T07:33:59;14.27;;;9.90;;
57893;SDS011;43710;47.460;19.034;2023-04-06T07:37:02;15.50;;;9.82;;
57893;SDS011;43710;47.460;19.034;2023-04-06T07:40:05;13.68;;;9.07;;
57893;SDS011;43710;47.460;19.034;2023-04-06T07:43:08;14.87;;;10.13;;
57893;SDS011;43710;47.460;19.034;2023-04-06T07:46:10;16.37;;;9.63;;
57893;SDS011;43710;47.460;19.034;2023-04-06T07:49:13;15.32;;;9.45;;
57893;SDS011;43710;47.460;19.034;2023-04-06T07:52:15;14.05;;;8.75;;
57893;SDS011;43710;47.460;19.034;2023-04-06T07:55:19;15.50;;;9.15;;
57893;SDS011;43710;47.460;19.034;2023-04-06T07:58:22;15.65;;;8.70;;
57893;SDS011;43710;47.460;19.034;2023-04-06T08:01:24;13.43;;;8.95;;
57893;SDS011;43710;47.460;19.034;2023-04-06T08:04:27;11.02;;;8.23;;
57893;SDS011;43710;47.460;19.034;2023-04-06T08:07:29;16.33;;;9.05;;
57893;SDS011;43710;47.460;19.034;2023-04-06T08:10:32;18.00;;;9.32;;
57893;SDS011;43710;47.460;19.034;2023-04-06T08:13:36;13.62;;;9.18;;
57893;SDS011;43710;47.460;19.034;2023-04-06T08:16:38;13.80;;;8.98;;
57893;SDS011;43710;47.460;19.034;2023-04-06T08:19:42;15.10;;;9.88;;
57893;SDS011;43710;47.460;19.034;2023-04-06T08:22:46;14.98;;;9.93;;
57893;SDS011;43710;47.460;19.034;2023-04-06T08:25:48;18.37;;;10.18;;
57893;SDS011;43710;47.460;19.034;2023-04-06T08:28:50;16.92;;;9.85;;
57893;SDS011;43710;47.460;19.034;2023-04-06T08:31:53;14.65;;;10.05;;
57893;SDS011;43710;47.460;19.034;2023-04-06T08:34:55;15.23;;;9.73;;
57893;SDS011;43710;47.460;19.034;2023-04-06T08:37:57;16.73;;;10.05;;
57893;SDS011;43710;47.460;19.034;2023-04-06T08:41:00;14.23;;;9.35;;
57893;SDS011;43710;47.460;19.034;2023-04-06T08:44:09;13.60;;;9.63;;
57893;SDS011;43710;47.460;19.034;2023-04-06T08:47:12;15.07;;;9.75;;
57893;SDS011;43710;47.460;19.034;2023-04-06T08:50:14;14.50;;;10.02;;
57893;SDS011;43710;47.460;19.034;2023-04-06T08:53:19;17.23;;;10.13;;
57893;SDS011;43710;47.460;19.034;2023-04-06T08:56:25;15.73;;;9.90;;
57893;SDS011;43710;47.460;19.034;2023-04-06T08:59:29;15.82;;;9.90;;
57893;SDS011;43710;47.460;19.034;2023-04-06T09:02:32;16.12;;;10.07;;
57893;SDS011;43710;47.460;19.034;2023-04-06T09:05:35;15.48;;;10.93;;
57893;SDS011;43710;47.460;19.034;2023-04-06T09:08:38;14.73;;;9.55;;
57893;SDS011;43710;47.460;19.034;2023-04-06T09:11:43;14.52;;;9.75;;
57893;SDS011;43710;47.460;19.034;2023-04-06T09:14:52;14.15;;;10.02;;
57893;SDS011;43710;47.460;19.034;2023-04-06T09:17:54;14.85;;;9.63;;
57893;SDS011;43710;47.460;19.034;2023-04-06T09:20:58;11.35;;;8.48;;
57893;SDS011;43710;47.460;19.034;2023-04-06T09:24:02;12.05;;;8.55;;
57893;SDS011;43710;47.460;19.034;2023-04-06T09:27:05;13.50;;;8.80;;
57893;SDS011;43710;47.460;19.034;2023-04-06T09:30:08;14.20;;;9.15;;
57893;SDS011;43710;47.460;19.034;2023-04-06T09:33:23;13.93;;;8.77;;
57893;SDS011;43710;47.460;19.034;2023-04-06T09:36:29;12.68;;;8.35;;
57893;SDS011;43710;47.460;19.034;2023-04-06T09:39:36;13.62;;;9.32;;
57893;SDS011;43710;47.460;19.034;2023-04-06T09:42:42;14.18;;;8.27;;
57893;SDS011;43710;47.460;19.034;2023-04-06T09:45:47;11.18;;;8.48;;
57893;SDS011;43710;47.460;19.034;2023-04-06T09:48:49;11.45;;;8.27;;
57893;SDS011;43710;47.460;19.034;2023-04-06T09:51:54;14.30;;;8.52;;
57893;SDS011;43710;47.460;19.034;2023-04-06T09:55:02;12.57;;;8.70;;
57893;SDS011;43710;47.460;19.034;2023-04-06T09:58:06;13.25;;;8.48;;
57893;SDS011;43710;47.460;19.034;2023-04-06T10:01:12;13.20;;;9.07;;
57893;SDS011;43710;47.460;19.034;2023-04-06T10:07:26;11.12;;;8.50;;
57893;SDS011;43710;47.460;19.034;2023-04-06T10:10:29;14.52;;;9.32;;
57893;SDS011;43710;47.460;19.034;2023-04-06T10:13:32;14.93;;;8.48;;
57893;SDS011;43710;47.460;19.034;2023-04-06T10:16:34;12.77;;;8.35;;
57893;SDS011;43710;47.460;19.034;2023-04-06T10:26:16;13.17;;;8.10;;
57893;SDS011;43710;47.460;19.034;2023-04-06T10:29:22;11.27;;;7.78;;
57893;SDS011;43710;47.460;19.034;2023-04-06T10:32:34;11.77;;;8.10;;
57893;SDS011;43710;47.460;19.034;2023-04-06T10:35:38;13.43;;;8.13;;
57893;SDS011;43710;47.460;19.034;2023-04-06T10:38:41;11.50;;;7.78;;
57893;SDS011;43710;47.460;19.034;2023-04-06T10:41:45;11.43;;;7.75;;
57893;SDS011;43710;47.460;19.034;2023-04-06T10:44:50;10.45;;;7.37;;
57893;SDS011;43710;47.460;19.034;2023-04-06T10:47:52;12.63;;;7.43;;
57893;SDS011;43710;47.460;19.034;2023-04-06T10:50:55;10.85;;;7.72;;
57893;SDS011;43710;47.460;19.034;2023-04-06T10:53:58;11.85;;;7.30;;
57893;SDS011;43710;47.460;19.034;2023-04-06T10:57:01;10.90;;;8.00;;
57893;SDS011;43710;47.460;19.034;2023-04-06T11:00:04;11.82;;;8.00;;
57893;SDS011;43710;47.460;19.034;2023-04-06T11:03:07;10.80;;;7.47;;
